Tuesday, August 21, 2018, 1:54 PM GMT
Back to Local

CYHZ, Halifax International Airport

Location: , , Canada Lat: 44.883
Local Time: 1:54 PM GMT (13:54 GMT) Lon: -63.5
Time Zone: GMT Elev: 475 ft

Show me the last for .
Show Decoded

2018-08-21 07:00 METAR CYHZ 210700Z 05005KT 15SM FEW015 13/13 A3016 RMK SC1 SLP215 =
2018-08-21 05:00 METAR CYHZ 210500Z 03005KT 15SM SCT017 12/12 A3018 RMK SC4 SLP224 =
2018-08-21 04:12 METAR CYHZ 210412Z 03005KT 360V060 15SM SCT015 13/13 A3019 RMK SC3 SLP226 =
2018-08-21 04:00 METAR CYHZ 210400Z 06006KT 15SM FEW120 13/13 A3019 RMK AC1 AC TR SLP226 =
2018-08-21 03:00 METAR CYHZ 210300Z 09007KT 15SM SKC 14/13 A3019 RMK SLP226 =
2018-08-21 02:00 METAR CYHZ 210200Z 10004KT 360V120 15SM SKC 14/13 A3020 RMK SLP228 =
2018-08-21 01:00 METAR CYHZ 210100Z 11007KT 15SM SKC 15/13 A3020 RMK SLP230 =
2018-08-21 00:00 METAR CYHZ 210000Z 12006KT 15SM FEW150 FEW250 16/13 A3018 RMK AC1CS1 AC TR
                 SLP224 =
2018-08-20 23:00 METAR CYHZ 202300Z 14006KT 15SM FEW029 FEW150 FEW250 17/13 A3018 RMK SC1AC1CS1
                 SC TR WND ESTD SLP221 DENSITY ALT 600FT =
2018-08-20 22:00 METAR CYHZ 202200Z 10012KT 15SM FEW031 SCT150 SCT250 20/12 A3017 RMK SC1AC2CS1
                 SLP220 DENSITY ALT 900FT =
2018-08-20 21:00 METAR CYHZ 202100Z 11013KT 15SM FEW025 FEW045 SCT210 21/13 A3016 RMK ST1SC1CS1
                 SLP216 DENSITY ALT 1100FT =
2018-08-20 20:00 METAR CYHZ 202000Z 11010G17KT 15SM FEW020 FEW035 BKN210 22/12 A3017 RMK
                 SF1SC1CS4 SLP218 DENSITY ALT 1200FT =
2018-08-20 19:00 METAR CYHZ 201900Z 11011G19KT 15SM FEW021 FEW035 BKN210 22/13 A3017 RMK
                 SC1SC1CI4 SLP218 DENSITY ALT 1200FT =
2018-08-20 18:00 METAR CYHZ 201800Z 13007G16KT 15SM FEW021 SCT036 BKN210 22/13 A3018 RMK
                 SC1SC2CS3 SLP222 DENSITY ALT 1100FT =
2018-08-20 17:00 METAR CYHZ 201700Z 10010G16KT 080V140 15SM FEW040 BKN210 21/13 A3020 RMK SC2CS4
                 SLP227 DENSITY ALT 1100FT =
2018-08-20 16:00 METAR CYHZ 201600Z 12010G17KT 15SM BKN032 BKN250 22/13 A3021 RMK SC5CS2 SLP232
                 DENSITY ALT 1100FT =
2018-08-20 15:00 METAR CYHZ 201500Z 09011KT 15SM BKN026 BKN250 20/14 A3022 RMK SC6CI1 SLP237
                 DENSITY ALT 900FT =
2018-08-20 14:00 METAR CYHZ 201400Z 09010KT 15SM BKN022 19/15 A3023 RMK SC7 SLP238 DENSITY ALT
                 800FT =

Support USWX by starting your Amazon purchase here.